sensor_id;sensor_type;location;lat;lon;timestamp;P1;durP1;ratioP1;P2;durP2;ratioP2
31382;SDS011;18014;49.228;11.102;2024-01-27T00:00:18;8.30;;;2.53;;
31382;SDS011;18014;49.228;11.102;2024-01-27T00:02:19;6.30;;;2.50;;
31382;SDS011;18014;49.228;11.102;2024-01-27T00:04:20;6.75;;;2.30;;
31382;SDS011;18014;49.228;11.102;2024-01-27T00:06:21;14.90;;;2.78;;
31382;SDS011;18014;49.228;11.102;2024-01-27T00:08:22;4.82;;;2.00;;
31382;SDS011;18014;49.228;11.102;2024-01-27T00:10:23;9.25;;;2.60;;
31382;SDS011;18014;49.228;11.102;2024-01-27T00:12:24;8.98;;;2.28;;
31382;SDS011;18014;49.228;11.102;2024-01-27T00:14:25;2.97;;;1.70;;
31382;SDS011;18014;49.228;11.102;2024-01-27T00:16:27;7.47;;;2.55;;
31382;SDS011;18014;49.228;11.102;2024-01-27T00:18:28;6.82;;;2.10;;
31382;SDS011;18014;49.228;11.102;2024-01-27T00:20:28;8.20;;;2.75;;
31382;SDS011;18014;49.228;11.102;2024-01-27T00:22:30;8.82;;;2.40;;
31382;SDS011;18014;49.228;11.102;2024-01-27T00:24:30;6.65;;;2.47;;
31382;SDS011;18014;49.228;11.102;2024-01-27T00:26:31;4.25;;;2.10;;
31382;SDS011;18014;49.228;11.102;2024-01-27T00:28:32;4.32;;;2.00;;
31382;SDS011;18014;49.228;11.102;2024-01-27T00:30:33;4.97;;;2.17;;
31382;SDS011;18014;49.228;11.102;2024-01-27T00:32:34;4.57;;;1.92;;
31382;SDS011;18014;49.228;11.102;2024-01-27T00:34:35;8.18;;;2.22;;
31382;SDS011;18014;49.228;11.102;2024-01-27T00:36:36;7.28;;;2.25;;
31382;SDS011;18014;49.228;11.102;2024-01-27T00:38:37;5.60;;;2.47;;
31382;SDS011;18014;49.228;11.102;2024-01-27T00:40:38;6.45;;;2.65;;
31382;SDS011;18014;49.228;11.102;2024-01-27T00:42:40;7.40;;;2.33;;
31382;SDS011;18014;49.228;11.102;2024-01-27T00:44:41;8.63;;;2.40;;
31382;SDS011;18014;49.228;11.102;2024-01-27T00:46:42;7.05;;;2.80;;
31382;SDS011;18014;49.228;11.102;2024-01-27T00:48:43;7.53;;;2.33;;
31382;SDS011;18014;49.228;11.102;2024-01-27T00:50:44;5.75;;;2.15;;
31382;SDS011;18014;49.228;11.102;2024-01-27T00:52:45;6.13;;;2.13;;
31382;SDS011;18014;49.228;11.102;2024-01-27T00:54:45;7.05;;;2.28;;
31382;SDS011;18014;49.228;11.102;2024-01-27T00:56:46;9.20;;;2.70;;
31382;SDS011;18014;49.228;11.102;2024-01-27T00:58:48;7.70;;;2.47;;
31382;SDS011;18014;49.228;11.102;2024-01-27T01:00:49;6.38;;;2.38;;
31382;SDS011;18014;49.228;11.102;2024-01-27T01:02:50;5.68;;;2.60;;
31382;SDS011;18014;49.228;11.102;2024-01-27T01:04:51;4.50;;;2.15;;
31382;SDS011;18014;49.228;11.102;2024-01-27T01:06:52;6.47;;;2.67;;
31382;SDS011;18014;49.228;11.102;2024-01-27T01:08:53;7.30;;;2.28;;
31382;SDS011;18014;49.228;11.102;2024-01-27T01:10:54;11.63;;;2.90;;
31382;SDS011;18014;49.228;11.102;2024-01-27T01:12:55;10.25;;;2.50;;
31382;SDS011;18014;49.228;11.102;2024-01-27T01:14:56;6.68;;;2.28;;
31382;SDS011;18014;49.228;11.102;2024-01-27T01:16:57;7.57;;;2.90;;
31382;SDS011;18014;49.228;11.102;2024-01-27T01:18:58;8.73;;;2.63;;
31382;SDS011;18014;49.228;11.102;2024-01-27T01:20:59;9.30;;;2.92;;
31382;SDS011;18014;49.228;11.102;2024-01-27T01:23:00;13.25;;;3.05;;
31382;SDS011;18014;49.228;11.102;2024-01-27T01:25:01;5.93;;;2.47;;
31382;SDS011;18014;49.228;11.102;2024-01-27T01:27:02;7.57;;;2.42;;
31382;SDS011;18014;49.228;11.102;2024-01-27T01:29:03;5.03;;;2.55;;
31382;SDS011;18014;49.228;11.102;2024-01-27T01:31:06;5.57;;;2.35;;
31382;SDS011;18014;49.228;11.102;2024-01-27T01:33:07;6.85;;;2.83;;
31382;SDS011;18014;49.228;11.102;2024-01-27T01:35:10;6.53;;;2.58;;
31382;SDS011;18014;49.228;11.102;2024-01-27T01:37:11;6.50;;;2.63;;
31382;SDS011;18014;49.228;11.102;2024-01-27T01:39:13;8.43;;;2.65;;
31382;SDS011;18014;49.228;11.102;2024-01-27T01:41:14;9.95;;;3.00;;
31382;SDS011;18014;49.228;11.102;2024-01-27T01:43:15;8.05;;;3.22;;
31382;SDS011;18014;49.228;11.102;2024-01-27T01:45:16;5.57;;;2.65;;
31382;SDS011;18014;49.228;11.102;2024-01-27T01:47:17;5.88;;;2.38;;
31382;SDS011;18014;49.228;11.102;2024-01-27T01:49:18;7.63;;;2.60;;
31382;SDS011;18014;49.228;11.102;2024-01-27T01:51:19;7.47;;;2.63;;
31382;SDS011;18014;49.228;11.102;2024-01-27T01:53:21;7.50;;;2.55;;
31382;SDS011;18014;49.228;11.102;2024-01-27T01:55:23;8.55;;;2.83;;
31382;SDS011;18014;49.228;11.102;2024-01-27T01:57:24;7.85;;;3.08;;
31382;SDS011;18014;49.228;11.102;2024-01-27T01:59:25;10.25;;;2.42;;
31382;SDS011;18014;49.228;11.102;2024-01-27T02:01:25;8.05;;;3.05;;
31382;SDS011;18014;49.228;11.102;2024-01-27T02:03:27;7.82;;;2.42;;
31382;SDS011;18014;49.228;11.102;2024-01-27T02:05:28;8.05;;;2.88;;
31382;SDS011;18014;49.228;11.102;2024-01-27T02:07:29;6.80;;;2.60;;
31382;SDS011;18014;49.228;11.102;2024-01-27T02:09:30;5.97;;;2.85;;
31382;SDS011;18014;49.228;11.102;2024-01-27T02:11:31;2.92;;;2.10;;
31382;SDS011;18014;49.228;11.102;2024-01-27T02:13:32;6.57;;;2.38;;
31382;SDS011;18014;49.228;11.102;2024-01-27T02:15:33;7.05;;;2.95;;
31382;SDS011;18014;49.228;11.102;2024-01-27T02:17:34;8.18;;;2.90;;
31382;SDS011;18014;49.228;11.102;2024-01-27T02:19:35;12.43;;;2.60;;
31382;SDS011;18014;49.228;11.102;2024-01-27T02:21:36;8.90;;;3.25;;
31382;SDS011;18014;49.228;11.102;2024-01-27T02:23:37;8.27;;;2.95;;
31382;SDS011;18014;49.228;11.102;2024-01-27T02:25:38;9.13;;;3.20;;
31382;SDS011;18014;49.228;11.102;2024-01-27T02:27:39;9.95;;;2.63;;
31382;SDS011;18014;49.228;11.102;2024-01-27T02:29:40;8.13;;;2.88;;
31382;SDS011;18014;49.228;11.102;2024-01-27T02:31:41;9.52;;;3.10;;
31382;SDS011;18014;49.228;11.102;2024-01-27T02:33:42;9.73;;;3.30;;
31382;SDS011;18014;49.228;11.102;2024-01-27T02:35:43;8.90;;;3.10;;
31382;SDS011;18014;49.228;11.102;2024-01-27T02:37:43;6.63;;;2.63;;
31382;SDS011;18014;49.228;11.102;2024-01-27T02:39:44;6.65;;;2.75;;
31382;SDS011;18014;49.228;11.102;2024-01-27T02:41:48;8.75;;;2.50;;
31382;SDS011;18014;49.228;11.102;2024-01-27T02:43:49;6.05;;;2.60;;
31382;SDS011;18014;49.228;11.102;2024-01-27T02:45:50;6.45;;;2.88;;
31382;SDS011;18014;49.228;11.102;2024-01-27T02:47:51;6.53;;;2.55;;
31382;SDS011;18014;49.228;11.102;2024-01-27T02:49:52;4.90;;;2.92;;
31382;SDS011;18014;49.228;11.102;2024-01-27T02:51:54;6.95;;;3.03;;
31382;SDS011;18014;49.228;11.102;2024-01-27T02:53:55;7.10;;;2.78;;
31382;SDS011;18014;49.228;11.102;2024-01-27T02:55:56;5.72;;;2.60;;
31382;SDS011;18014;49.228;11.102;2024-01-27T02:57:57;7.05;;;2.95;;
31382;SDS011;18014;49.228;11.102;2024-01-27T02:59:58;10.13;;;3.50;;
31382;SDS011;18014;49.228;11.102;2024-01-27T03:01:59;4.85;;;2.97;;
31382;SDS011;18014;49.228;11.102;2024-01-27T03:04:00;8.52;;;2.95;;
31382;SDS011;18014;49.228;11.102;2024-01-27T03:06:01;6.20;;;3.08;;
31382;SDS011;18014;49.228;11.102;2024-01-27T03:08:02;9.20;;;3.53;;
31382;SDS011;18014;49.228;11.102;2024-01-27T03:10:03;7.68;;;3.35;;
31382;SDS011;18014;49.228;11.102;2024-01-27T03:12:05;6.60;;;2.75;;
31382;SDS011;18014;49.228;11.102;2024-01-27T03:14:06;4.82;;;2.78;;
31382;SDS011;18014;49.228;11.102;2024-01-27T03:16:08;9.77;;;2.85;;
31382;SDS011;18014;49.228;11.102;2024-01-27T03:18:09;6.20;;;3.00;;
31382;SDS011;18014;49.228;11.102;2024-01-27T03:20:10;14.05;;;3.30;;
31382;SDS011;18014;49.228;11.102;2024-01-27T03:22:11;9.57;;;3.10;;
31382;SDS011;18014;49.228;11.102;2024-01-27T03:24:12;7.85;;;2.97;;
31382;SDS011;18014;49.228;11.102;2024-01-27T03:26:13;8.32;;;3.22;;
31382;SDS011;18014;49.228;11.102;2024-01-27T03:28:14;8.75;;;2.75;;
31382;SDS011;18014;49.228;11.102;2024-01-27T03:30:16;9.18;;;3.20;;
31382;SDS011;18014;49.228;11.102;2024-01-27T03:32:17;10.32;;;3.00;;
31382;SDS011;18014;49.228;11.102;2024-01-27T03:34:18;14.32;;;3.33;;
31382;SDS011;18014;49.228;11.102;2024-01-27T03:36:24;12.43;;;3.60;;
31382;SDS011;18014;49.228;11.102;2024-01-27T03:38:25;8.80;;;3.45;;
31382;SDS011;18014;49.228;11.102;2024-01-27T03:40:26;10.50;;;3.22;;
31382;SDS011;18014;49.228;11.102;2024-01-27T03:42:28;6.72;;;2.88;;
31382;SDS011;18014;49.228;11.102;2024-01-27T03:44:29;5.60;;;2.67;;
31382;SDS011;18014;49.228;11.102;2024-01-27T03:46:30;9.50;;;3.30;;
31382;SDS011;18014;49.228;11.102;2024-01-27T03:48:31;7.68;;;3.28;;
31382;SDS011;18014;49.228;11.102;2024-01-27T03:50:32;9.82;;;3.17;;
31382;SDS011;18014;49.228;11.102;2024-01-27T03:52:33;6.95;;;2.80;;
31382;SDS011;18014;49.228;11.102;2024-01-27T03:54:37;9.65;;;3.05;;
31382;SDS011;18014;49.228;11.102;2024-01-27T03:56:39;7.68;;;2.85;;
31382;SDS011;18014;49.228;11.102;2024-01-27T03:58:43;8.82;;;3.30;;
31382;SDS011;18014;49.228;11.102;2024-01-27T04:00:44;16.05;;;3.50;;
31382;SDS011;18014;49.228;11.102;2024-01-27T04:02:45;10.63;;;3.45;;
31382;SDS011;18014;49.228;11.102;2024-01-27T04:04:46;11.35;;;3.72;;
31382;SDS011;18014;49.228;11.102;2024-01-27T04:06:47;10.30;;;3.60;;
31382;SDS011;18014;49.228;11.102;2024-01-27T04:08:48;7.97;;;2.95;;
31382;SDS011;18014;49.228;11.102;2024-01-27T04:10:49;10.52;;;3.35;;
31382;SDS011;18014;49.228;11.102;2024-01-27T04:12:50;11.43;;;3.60;;
31382;SDS011;18014;49.228;11.102;2024-01-27T04:14:51;12.07;;;3.55;;
31382;SDS011;18014;49.228;11.102;2024-01-27T04:16:52;9.93;;;4.07;;
31382;SDS011;18014;49.228;11.102;2024-01-27T04:18:53;7.90;;;4.10;;
31382;SDS011;18014;49.228;11.102;2024-01-27T04:20:54;5.88;;;2.85;;
31382;SDS011;18014;49.228;11.102;2024-01-27T04:22:55;8.10;;;3.63;;
31382;SDS011;18014;49.228;11.102;2024-01-27T04:24:56;6.88;;;3.72;;
31382;SDS011;18014;49.228;11.102;2024-01-27T04:26:57;8.32;;;3.58;;
31382;SDS011;18014;49.228;11.102;2024-01-27T04:28:59;11.18;;;3.67;;
31382;SDS011;18014;49.228;11.102;2024-01-27T04:31:00;7.38;;;3.58;;
31382;SDS011;18014;49.228;11.102;2024-01-27T04:33:01;7.65;;;3.00;;
31382;SDS011;18014;49.228;11.102;2024-01-27T04:35:02;11.65;;;3.88;;
31382;SDS011;18014;49.228;11.102;2024-01-27T04:37:04;10.45;;;3.75;;
31382;SDS011;18014;49.228;11.102;2024-01-27T04:39:05;6.18;;;3.20;;
31382;SDS011;18014;49.228;11.102;2024-01-27T04:41:06;10.40;;;3.45;;
31382;SDS011;18014;49.228;11.102;2024-01-27T04:43:07;8.50;;;3.70;;
31382;SDS011;18014;49.228;11.102;2024-01-27T04:45:08;9.05;;;3.50;;
31382;SDS011;18014;49.228;11.102;2024-01-27T04:47:09;7.32;;;3.53;;
31382;SDS011;18014;49.228;11.102;2024-01-27T04:49:10;11.70;;;4.05;;
31382;SDS011;18014;49.228;11.102;2024-01-27T04:51:11;8.45;;;4.00;;
31382;SDS011;18014;49.228;11.102;2024-01-27T04:53:12;8.30;;;4.05;;
31382;SDS011;18014;49.228;11.102;2024-01-27T04:55:13;11.18;;;3.90;;
31382;SDS011;18014;49.228;11.102;2024-01-27T04:57:14;12.07;;;4.05;;
31382;SDS011;18014;49.228;11.102;2024-01-27T04:59:16;9.85;;;3.75;;
31382;SDS011;18014;49.228;11.102;2024-01-27T05:01:17;11.57;;;3.63;;
31382;SDS011;18014;49.228;11.102;2024-01-27T05:03:18;6.10;;;3.67;;
31382;SDS011;18014;49.228;11.102;2024-01-27T05:05:18;7.65;;;4.38;;
31382;SDS011;18014;49.228;11.102;2024-01-27T05:07:20;9.60;;;3.75;;
31382;SDS011;18014;49.228;11.102;2024-01-27T05:09:21;9.82;;;4.07;;
31382;SDS011;18014;49.228;11.102;2024-01-27T05:11:25;7.10;;;3.53;;
31382;SDS011;18014;49.228;11.102;2024-01-27T05:13:31;10.60;;;3.70;;
31382;SDS011;18014;49.228;11.102;2024-01-27T05:15:32;10.38;;;3.72;;
31382;SDS011;18014;49.228;11.102;2024-01-27T05:17:32;8.57;;;3.88;;
31382;SDS011;18014;49.228;11.102;2024-01-27T05:19:33;7.57;;;3.40;;
31382;SDS011;18014;49.228;11.102;2024-01-27T05:21:34;10.48;;;4.03;;
31382;SDS011;18014;49.228;11.102;2024-01-27T05:23:35;9.77;;;3.83;;
31382;SDS011;18014;49.228;11.102;2024-01-27T05:25:36;7.38;;;3.92;;
31382;SDS011;18014;49.228;11.102;2024-01-27T05:27:38;7.45;;;3.40;;
31382;SDS011;18014;49.228;11.102;2024-01-27T05:29:39;10.82;;;4.72;;
31382;SDS011;18014;49.228;11.102;2024-01-27T05:31:40;8.27;;;3.65;;
31382;SDS011;18014;49.228;11.102;2024-01-27T05:33:43;10.88;;;3.85;;
31382;SDS011;18014;49.228;11.102;2024-01-27T05:35:44;9.73;;;4.78;;
31382;SDS011;18014;49.228;11.102;2024-01-27T05:37:45;10.80;;;4.88;;
31382;SDS011;18014;49.228;11.102;2024-01-27T05:39:46;6.53;;;4.05;;
31382;SDS011;18014;49.228;11.102;2024-01-27T05:41:48;10.48;;;3.95;;
31382;SDS011;18014;49.228;11.102;2024-01-27T05:43:49;8.65;;;4.68;;
31382;SDS011;18014;49.228;11.102;2024-01-27T05:45:50;7.85;;;4.28;;
31382;SDS011;18014;49.228;11.102;2024-01-27T05:47:51;7.45;;;3.75;;
31382;SDS011;18014;49.228;11.102;2024-01-27T05:49:52;8.80;;;4.45;;
31382;SDS011;18014;49.228;11.102;2024-01-27T05:51:53;7.47;;;4.80;;
31382;SDS011;18014;49.228;11.102;2024-01-27T05:53:54;13.93;;;4.68;;
31382;SDS011;18014;49.228;11.102;2024-01-27T05:55:55;8.95;;;4.57;;
31382;SDS011;18014;49.228;11.102;2024-01-27T05:57:59;11.57;;;4.30;;
31382;SDS011;18014;49.228;11.102;2024-01-27T06:00:00;8.52;;;4.15;;
31382;SDS011;18014;49.228;11.102;2024-01-27T06:02:01;14.65;;;4.30;;
31382;SDS011;18014;49.228;11.102;2024-01-27T06:04:02;8.10;;;4.25;;
31382;SDS011;18014;49.228;11.102;2024-01-27T06:06:04;15.25;;;4.55;;
31382;SDS011;18014;49.228;11.102;2024-01-27T06:08:05;11.25;;;5.00;;
31382;SDS011;18014;49.228;11.102;2024-01-27T06:10:08;7.57;;;3.65;;
31382;SDS011;18014;49.228;11.102;2024-01-27T06:12:09;14.45;;;6.25;;
31382;SDS011;18014;49.228;11.102;2024-01-27T06:14:10;9.40;;;5.10;;
31382;SDS011;18014;49.228;11.102;2024-01-27T06:16:11;12.73;;;4.85;;
31382;SDS011;18014;49.228;11.102;2024-01-27T06:18:12;12.80;;;5.68;;
31382;SDS011;18014;49.228;11.102;2024-01-27T06:20:13;8.40;;;5.15;;
31382;SDS011;18014;49.228;11.102;2024-01-27T06:22:17;9.40;;;4.40;;
31382;SDS011;18014;49.228;11.102;2024-01-27T06:24:18;9.32;;;4.72;;
31382;SDS011;18014;49.228;11.102;2024-01-27T06:26:19;10.32;;;4.90;;
31382;SDS011;18014;49.228;11.102;2024-01-27T06:28:21;10.52;;;4.65;;
31382;SDS011;18014;49.228;11.102;2024-01-27T06:30:22;9.35;;;4.55;;
31382;SDS011;18014;49.228;11.102;2024-01-27T06:32:23;13.13;;;5.40;;
31382;SDS011;18014;49.228;11.102;2024-01-27T06:34:24;11.75;;;5.43;;
31382;SDS011;18014;49.228;11.102;2024-01-27T06:36:25;12.93;;;4.97;;
31382;SDS011;18014;49.228;11.102;2024-01-27T06:38:27;12.07;;;5.00;;
31382;SDS011;18014;49.228;11.102;2024-01-27T06:40:28;9.65;;;4.75;;
31382;SDS011;18014;49.228;11.102;2024-01-27T06:42:29;9.00;;;4.78;;
31382;SDS011;18014;49.228;11.102;2024-01-27T06:44:30;11.50;;;5.10;;
31382;SDS011;18014;49.228;11.102;2024-01-27T06:46:31;9.85;;;4.80;;
31382;SDS011;18014;49.228;11.102;2024-01-27T06:48:32;14.68;;;5.72;;
31382;SDS011;18014;49.228;11.102;2024-01-27T06:50:33;11.15;;;5.00;;
31382;SDS011;18014;49.228;11.102;2024-01-27T06:52:34;10.13;;;5.20;;
31382;SDS011;18014;49.228;11.102;2024-01-27T06:54:35;9.15;;;4.70;;
31382;SDS011;18014;49.228;11.102;2024-01-27T06:56:41;13.52;;;5.30;;
31382;SDS011;18014;49.228;11.102;2024-01-27T06:58:42;11.25;;;5.00;;
31382;SDS011;18014;49.228;11.102;2024-01-27T07:00:43;9.35;;;5.00;;
31382;SDS011;18014;49.228;11.102;2024-01-27T07:02:44;12.77;;;5.60;;
31382;SDS011;18014;49.228;11.102;2024-01-27T07:04:45;10.48;;;5.32;;
31382;SDS011;18014;49.228;11.102;2024-01-27T07:06:46;11.32;;;5.15;;
31382;SDS011;18014;49.228;11.102;2024-01-27T07:08:47;9.50;;;5.00;;
31382;SDS011;18014;49.228;11.102;2024-01-27T07:10:48;9.55;;;5.13;;
31382;SDS011;18014;49.228;11.102;2024-01-27T07:12:49;16.27;;;5.57;;
31382;SDS011;18014;49.228;11.102;2024-01-27T07:14:50;9.93;;;5.82;;
31382;SDS011;18014;49.228;11.102;2024-01-27T07:16:52;12.83;;;5.50;;
31382;SDS011;18014;49.228;11.102;2024-01-27T07:18:53;11.45;;;4.90;;
31382;SDS011;18014;49.228;11.102;2024-01-27T07:20:54;9.05;;;5.60;;
31382;SDS011;18014;49.228;11.102;2024-01-27T07:22:54;14.80;;;5.20;;
31382;SDS011;18014;49.228;11.102;2024-01-27T07:24:55;9.50;;;5.22;;
31382;SDS011;18014;49.228;11.102;2024-01-27T07:26:57;13.20;;;5.88;;
31382;SDS011;18014;49.228;11.102;2024-01-27T07:29:00;10.32;;;5.13;;
31382;SDS011;18014;49.228;11.102;2024-01-27T07:31:01;13.73;;;5.53;;
31382;SDS011;18014;49.228;11.102;2024-01-27T07:33:02;8.95;;;5.70;;
31382;SDS011;18014;49.228;11.102;2024-01-27T07:35:04;10.32;;;5.57;;
31382;SDS011;18014;49.228;11.102;2024-01-27T07:37:05;11.57;;;5.03;;
31382;SDS011;18014;49.228;11.102;2024-01-27T07:39:06;10.45;;;5.57;;
31382;SDS011;18014;49.228;11.102;2024-01-27T07:41:07;11.75;;;5.60;;
31382;SDS011;18014;49.228;11.102;2024-01-27T07:43:08;10.95;;;5.90;;
31382;SDS011;18014;49.228;11.102;2024-01-27T07:45:09;13.10;;;6.43;;
31382;SDS011;18014;49.228;11.102;2024-01-27T07:47:10;11.35;;;5.22;;
31382;SDS011;18014;49.228;11.102;2024-01-27T07:49:11;13.82;;;6.00;;
31382;SDS011;18014;49.228;11.102;2024-01-27T07:51:15;16.50;;;6.10;;
31382;SDS011;18014;49.228;11.102;2024-01-27T07:53:16;12.30;;;5.87;;
31382;SDS011;18014;49.228;11.102;2024-01-27T07:55:17;14.05;;;6.13;;
31382;SDS011;18014;49.228;11.102;2024-01-27T07:57:18;11.82;;;5.45;;
31382;SDS011;18014;49.228;11.102;2024-01-27T07:59:19;12.55;;;5.80;;
31382;SDS011;18014;49.228;11.102;2024-01-27T08:01:20;14.52;;;5.95;;
31382;SDS011;18014;49.228;11.102;2024-01-27T08:03:21;11.95;;;5.80;;
31382;SDS011;18014;49.228;11.102;2024-01-27T08:05:22;10.95;;;5.60;;
31382;SDS011;18014;49.228;11.102;2024-01-27T08:07:23;13.48;;;5.72;;
31382;SDS011;18014;49.228;11.102;2024-01-27T08:09:24;10.98;;;5.75;;
31382;SDS011;18014;49.228;11.102;2024-01-27T08:11:25;14.10;;;5.80;;
31382;SDS011;18014;49.228;11.102;2024-01-27T08:13:26;11.85;;;6.07;;
31382;SDS011;18014;49.228;11.102;2024-01-27T08:15:27;12.70;;;6.32;;
31382;SDS011;18014;49.228;11.102;2024-01-27T08:17:28;14.02;;;6.18;;
31382;SDS011;18014;49.228;11.102;2024-01-27T08:19:29;12.25;;;5.70;;
31382;SDS011;18014;49.228;11.102;2024-01-27T08:21:30;15.65;;;6.18;;
31382;SDS011;18014;49.228;11.102;2024-01-27T08:23:31;10.48;;;5.97;;
31382;SDS011;18014;49.228;11.102;2024-01-27T08:25:32;11.05;;;6.30;;
31382;SDS011;18014;49.228;11.102;2024-01-27T08:27:33;11.55;;;6.32;;
31382;SDS011;18014;49.228;11.102;2024-01-27T08:29:34;10.02;;;6.25;;
31382;SDS011;18014;49.228;11.102;2024-01-27T08:31:35;15.70;;;6.00;;
31382;SDS011;18014;49.228;11.102;2024-01-27T08:33:38;9.48;;;5.95;;
31382;SDS011;18014;49.228;11.102;2024-01-27T08:35:39;11.13;;;6.50;;
31382;SDS011;18014;49.228;11.102;2024-01-27T08:37:40;17.30;;;6.78;;
31382;SDS011;18014;49.228;11.102;2024-01-27T08:39:41;15.48;;;6.18;;
31382;SDS011;18014;49.228;11.102;2024-01-27T08:41:42;12.45;;;6.15;;
31382;SDS011;18014;49.228;11.102;2024-01-27T08:43:43;14.70;;;6.38;;
31382;SDS011;18014;49.228;11.102;2024-01-27T08:45:44;10.88;;;6.55;;
31382;SDS011;18014;49.228;11.102;2024-01-27T08:47:45;16.58;;;6.00;;
31382;SDS011;18014;49.228;11.102;2024-01-27T08:49:46;12.15;;;6.18;;
31382;SDS011;18014;49.228;11.102;2024-01-27T08:51:47;17.58;;;5.85;;
31382;SDS011;18014;49.228;11.102;2024-01-27T08:53:48;10.10;;;5.75;;
31382;SDS011;18014;49.228;11.102;2024-01-27T08:55:49;15.35;;;6.35;;
31382;SDS011;18014;49.228;11.102;2024-01-27T08:57:50;13.90;;;5.72;;
31382;SDS011;18014;49.228;11.102;2024-01-27T08:59:51;13.43;;;5.88;;
31382;SDS011;18014;49.228;11.102;2024-01-27T09:01:52;10.88;;;6.15;;
31382;SDS011;18014;49.228;11.102;2024-01-27T09:03:53;10.63;;;5.80;;
31382;SDS011;18014;49.228;11.102;2024-01-27T09:05:54;14.50;;;6.13;;
31382;SDS011;18014;49.228;11.102;2024-01-27T09:07:55;16.42;;;5.95;;
31382;SDS011;18014;49.228;11.102;2024-01-27T09:09:56;12.57;;;6.10;;
31382;SDS011;18014;49.228;11.102;2024-01-27T09:11:57;10.68;;;5.88;;
31382;SDS011;18014;49.228;11.102;2024-01-27T09:13:58;12.77;;;6.32;;
31382;SDS011;18014;49.228;11.102;2024-01-27T09:15:59;13.40;;;6.18;;
31382;SDS011;18014;49.228;11.102;2024-01-27T09:18:00;13.80;;;5.90;;
31382;SDS011;18014;49.228;11.102;2024-01-27T09:20:01;13.32;;;5.85;;
31382;SDS011;18014;49.228;11.102;2024-01-27T09:22:02;14.15;;;6.15;;
31382;SDS011;18014;49.228;11.102;2024-01-27T09:24:04;14.27;;;5.50;;
31382;SDS011;18014;49.228;11.102;2024-01-27T09:26:05;15.68;;;6.55;;
31382;SDS011;18014;49.228;11.102;2024-01-27T09:28:06;9.65;;;5.45;;
31382;SDS011;18014;49.228;11.102;2024-01-27T09:30:07;16.77;;;6.30;;
31382;SDS011;18014;49.228;11.102;2024-01-27T09:32:08;13.02;;;5.43;;
31382;SDS011;18014;49.228;11.102;2024-01-27T09:34:09;14.43;;;6.82;;
31382;SDS011;18014;49.228;11.102;2024-01-27T09:36:10;14.10;;;6.10;;
31382;SDS011;18014;49.228;11.102;2024-01-27T09:38:11;9.73;;;5.80;;
31382;SDS011;18014;49.228;11.102;2024-01-27T09:42:15;15.38;;;6.18;;
31382;SDS011;18014;49.228;11.102;2024-01-27T09:44:18;9.88;;;5.18;;
31382;SDS011;18014;49.228;11.102;2024-01-27T09:46:19;12.77;;;5.50;;
31382;SDS011;18014;49.228;11.102;2024-01-27T09:48:20;11.95;;;5.65;;
31382;SDS011;18014;49.228;11.102;2024-01-27T09:50:22;10.95;;;5.00;;
31382;SDS011;18014;49.228;11.102;2024-01-27T09:52:23;16.30;;;5.95;;
31382;SDS011;18014;49.228;11.102;2024-01-27T09:54:24;14.93;;;5.22;;
31382;SDS011;18014;49.228;11.102;2024-01-27T09:56:25;11.93;;;5.25;;
31382;SDS011;18014;49.228;11.102;2024-01-27T09:58:28;9.77;;;5.05;;
31382;SDS011;18014;49.228;11.102;2024-01-27T10:00:29;12.02;;;4.70;;
31382;SDS011;18014;49.228;11.102;2024-01-27T10:02:31;9.90;;;4.35;;
31382;SDS011;18014;49.228;11.102;2024-01-27T10:04:32;13.70;;;5.60;;
31382;SDS011;18014;49.228;11.102;2024-01-27T10:06:33;11.65;;;5.20;;
31382;SDS011;18014;49.228;11.102;2024-01-27T10:08:34;9.60;;;4.30;;
31382;SDS011;18014;49.228;11.102;2024-01-27T10:10:35;12.07;;;4.82;;
31382;SDS011;18014;49.228;11.102;2024-01-27T10:12:38;8.30;;;4.28;;
31382;SDS011;18014;49.228;11.102;2024-01-27T10:14:44;12.15;;;4.45;;
31382;SDS011;18014;49.228;11.102;2024-01-27T10:16:46;9.43;;;5.10;;
31382;SDS011;18014;49.228;11.102;2024-01-27T10:18:47;14.30;;;4.35;;
31382;SDS011;18014;49.228;11.102;2024-01-27T10:20:58;13.80;;;5.07;;
31382;SDS011;18014;49.228;11.102;2024-01-27T10:23:09;9.32;;;3.72;;
31382;SDS011;18014;49.228;11.102;2024-01-27T10:25:11;8.02;;;2.83;;
31382;SDS011;18014;49.228;11.102;2024-01-27T10:27:12;9.27;;;3.47;;
31382;SDS011;18014;49.228;11.102;2024-01-27T10:29:13;8.88;;;3.53;;
31382;SDS011;18014;49.228;11.102;2024-01-27T10:31:14;6.30;;;2.88;;
31382;SDS011;18014;49.228;11.102;2024-01-27T10:33:18;9.43;;;3.42;;
31382;SDS011;18014;49.228;11.102;2024-01-27T10:35:19;9.45;;;3.13;;
31382;SDS011;18014;49.228;11.102;2024-01-27T10:37:23;9.68;;;3.65;;
31382;SDS011;18014;49.228;11.102;2024-01-27T10:39:25;7.10;;;3.13;;
31382;SDS011;18014;49.228;11.102;2024-01-27T10:41:25;12.18;;;2.90;;
31382;SDS011;18014;49.228;11.102;2024-01-27T10:43:27;7.75;;;2.65;;
31382;SDS011;18014;49.228;11.102;2024-01-27T10:45:30;8.73;;;3.00;;
31382;SDS011;18014;49.228;11.102;2024-01-27T10:47:36;9.45;;;2.80;;
31382;SDS011;18014;49.228;11.102;2024-01-27T10:49:38;9.82;;;2.90;;
31382;SDS011;18014;49.228;11.102;2024-01-27T10:51:45;8.48;;;2.72;;
31382;SDS011;18014;49.228;11.102;2024-01-27T10:53:58;10.95;;;3.58;;
31382;SDS011;18014;49.228;11.102;2024-01-27T10:56:03;11.25;;;3.38;;
31382;SDS011;18014;49.228;11.102;2024-01-27T10:58:09;10.65;;;3.72;;
31382;SDS011;18014;49.228;11.102;2024-01-27T11:00:12;11.38;;;3.75;;
31382;SDS011;18014;49.228;11.102;2024-01-27T11:02:14;9.20;;;3.80;;
31382;SDS011;18014;49.228;11.102;2024-01-27T11:04:16;17.17;;;3.58;;
31382;SDS011;18014;49.228;11.102;2024-01-27T11:06:17;10.27;;;3.13;;
31382;SDS011;18014;49.228;11.102;2024-01-27T11:08:19;8.80;;;3.25;;
31382;SDS011;18014;49.228;11.102;2024-01-27T11:10:24;6.40;;;2.80;;
31382;SDS011;18014;49.228;11.102;2024-01-27T11:12:26;11.60;;;3.55;;
31382;SDS011;18014;49.228;11.102;2024-01-27T11:14:28;8.13;;;2.90;;
31382;SDS011;18014;49.228;11.102;2024-01-27T11:16:29;8.38;;;2.85;;
31382;SDS011;18014;49.228;11.102;2024-01-27T11:18:30;11.82;;;4.82;;
31382;SDS011;18014;49.228;11.102;2024-01-27T11:20:31;9.48;;;3.08;;
31382;SDS011;18014;49.228;11.102;2024-01-27T11:22:32;12.38;;;3.17;;
31382;SDS011;18014;49.228;11.102;2024-01-27T11:24:33;10.52;;;3.08;;
31382;SDS011;18014;49.228;11.102;2024-01-27T11:26:34;7.20;;;2.95;;
31382;SDS011;18014;49.228;11.102;2024-01-27T11:28:35;10.15;;;3.00;;
31382;SDS011;18014;49.228;11.102;2024-01-27T11:30:37;10.73;;;3.17;;
31382;SDS011;18014;49.228;11.102;2024-01-27T11:32:40;7.20;;;3.35;;
31382;SDS011;18014;49.228;11.102;2024-01-27T11:34:42;10.00;;;3.15;;
31382;SDS011;18014;49.228;11.102;2024-01-27T11:36:47;5.30;;;3.03;;
31382;SDS011;18014;49.228;11.102;2024-01-27T11:38:49;12.13;;;3.38;;
31382;SDS011;18014;49.228;11.102;2024-01-27T11:40:51;11.85;;;3.67;;
31382;SDS011;18014;49.228;11.102;2024-01-27T11:42:55;13.63;;;3.35;;
31382;SDS011;18014;49.228;11.102;2024-01-27T11:45:00;7.35;;;2.65;;
31382;SDS011;18014;49.228;11.102;2024-01-27T11:47:02;8.02;;;2.95;;
31382;SDS011;18014;49.228;11.102;2024-01-27T11:49:03;10.10;;;2.60;;
31382;SDS011;18014;49.228;11.102;2024-01-27T11:51:06;6.32;;;2.90;;
31382;SDS011;18014;49.228;11.102;2024-01-27T11:53:10;12.63;;;4.15;;
31382;SDS011;18014;49.228;11.102;2024-01-27T11:55:11;9.85;;;2.67;;
31382;SDS011;18014;49.228;11.102;2024-01-27T11:57:12;9.35;;;2.92;;